Terminal Aerodrome Forecast
Issued by NWS Charleston, WV

Home | Current Version | Previous Version | Text Only | Print | Product List | Glossary On
Versions: 1 2 3 4 5 6 7 8 9 10 11 12 13 14 15 16 17 18 19 20 21 22 23 24 25 26 27 28
000
FTUS41 KRLX 010200 AAA
TAFEKN
TAF AMD
KEKN 010240Z 0103/0124 00000KT P6SM BKN200
     FM010500 00000KT P6SM BKN110
     FM011200 00000KT P6SM OVC025
     FM011400 00000KT 3SM -SNPL BR OVC025
     FM011600 VRB03KT 3SM -PL BR OVC025
     FM011700 VRB03KT P6SM -RA OVC025
     FM011900 17005KT P6SM OVC050
     FM012300 16008KT P6SM -RA OVC080=

USA.gov is the U.S. government's official web portal to all federal, state and local government web resources and services.